Time;durP1;ratioP1;P1;durP2;ratioP2;P2;SDS_P1;SDS_P2;PMS_P1;PMS_P2;Temp;Humidity;BMP_temperature;BMP_pressure;BME280_temperature;BME280_humidity;BME280_pressure;Samples;Min_cycle;Max_cycle;Signal;HPM_P1;HPM_P2
2022/05/30 00:00:43;;;;;;;3.03;1.88;;;;;;;;;;10530060;28;20495;-91
2022/05/30 00:05:49;;;;;;;1.95;1.75;;;;;;;;;;10516036;28;20419;-91
2022/05/30 00:10:51;;;;;;;2.40;1.90;;;;;;;;;;10530824;28;20983;-94
2022/05/30 00:15:53;;;;;;;2.63;1.90;;;;;;;;;;10531535;28;20411;-92
2022/05/30 00:20:56;;;;;;;2.10;1.90;;;;;;;;;;10530988;28;20507;-92
2022/05/30 00:25:58;;;;;;;2.83;2.05;;;;;;;;;;10531067;28;20420;-92
2022/05/30 00:31:00;;;;;;;2.80;2.00;;;;;;;;;;10529426;28;20407;-92
2022/05/30 00:36:04;;;;;;;2.63;2.25;;;;;;;;;;10528894;28;20400;-92
2022/05/30 00:41:06;;;;;;;2.80;2.23;;;;;;;;;;10528780;28;20431;-94
2022/05/30 00:46:12;;;;;;;2.88;2.40;;;;;;;;;;10516571;28;20891;-93
2022/05/30 00:51:19;;;;;;;2.75;2.03;;;;;;;;;;10524652;28;20400;-93
2022/05/30 00:56:25;;;;;;;3.65;2.30;;;;;;;;;;10517857;28;20484;-92
2022/05/30 01:01:28;;;;;;;2.22;2.00;;;;;;;;;;10528336;28;20420;-94
2022/05/30 01:06:32;;;;;;;3.95;1.90;;;;;;;;;;10528102;28;20473;-92
2022/05/30 01:11:55;;;;;;;1.90;1.67;;;;;;;;;;10528078;28;20428;-93
2022/05/30 01:16:59;;;;;;;3.03;1.80;;;;;;;;;;10525996;28;20491;-92
2022/05/30 01:22:14;;;;;;;1.73;1.60;;;;;;;;;;10528148;28;20392;-93
2022/05/30 01:27:30;;;;;;;1.90;1.50;;;;;;;;;;10540381;28;20414;-94
2022/05/30 01:32:33;;;;;;;1.70;1.58;;;;;;;;;;10527898;28;20511;-94
2022/05/30 01:37:35;;;;;;;1.48;1.20;;;;;;;;;;10528013;28;20400;-92
2022/05/30 01:42:37;;;;;;;2.03;1.30;;;;;;;;;;10525718;28;20428;-91
2022/05/30 01:47:41;;;;;;;1.75;1.02;;;;;;;;;;10520674;28;20420;-93
2022/05/30 01:52:43;;;;;;;1.20;1.10;;;;;;;;;;10518962;28;20396;-93
2022/05/30 01:57:45;;;;;;;1.77;1.10;;;;;;;;;;10528552;28;20400;-93
2022/05/30 02:02:49;;;;;;;2.58;1.20;;;;;;;;;;10526968;28;20988;-92
2022/05/30 02:07:51;;;;;;;1.20;1.10;;;;;;;;;;10519194;28;20415;-93
2022/05/30 02:12:52;;;;;;;1.60;1.23;;;;;;;;;;10532940;28;20426;-92
2022/05/30 02:17:55;;;;;;;1.60;1.10;;;;;;;;;;10565310;28;20396;-94
2022/05/30 02:22:57;;;;;;;1.83;0.90;;;;;;;;;;10510772;28;20400;-92
2022/05/30 02:27:59;;;;;;;1.70;1.20;;;;;;;;;;10525569;28;20416;-93
2022/05/30 02:38:19;;;;;;;1.10;1.00;;;;;;;;;;10532085;28;20397;-92
2022/05/30 02:43:21;;;;;;;1.67;1.10;;;;;;;;;;10534052;28;20483;-92
2022/05/30 02:48:24;;;;;;;2.20;1.00;;;;;;;;;;10519342;28;20508;-92
2022/05/30 02:53:26;;;;;;;1.97;1.20;;;;;;;;;;10518583;28;20411;-93
2022/05/30 02:58:27;;;;;;;1.08;0.93;;;;;;;;;;10542542;28;20507;-92
2022/05/30 03:03:31;;;;;;;1.73;1.00;;;;;;;;;;10533279;28;20871;-92
2022/05/30 03:08:33;;;;;;;1.15;1.05;;;;;;;;;;10532062;28;20422;-93
2022/05/30 03:13:35;;;;;;;1.20;1.10;;;;;;;;;;10522166;28;20495;-92
2022/05/30 03:18:38;;;;;;;1.42;1.27;;;;;;;;;;10532367;28;20511;-92
2022/05/30 03:23:41;;;;;;;5.07;1.20;;;;;;;;;;10532874;28;20763;-92
2022/05/30 03:28:43;;;;;;;1.77;1.23;;;;;;;;;;10531809;28;20420;-94
2022/05/30 03:33:46;;;;;;;1.65;1.30;;;;;;;;;;10531572;28;20411;-93
2022/05/30 03:38:48;;;;;;;2.60;1.30;;;;;;;;;;10531355;28;20400;-93
2022/05/30 03:43:50;;;;;;;1.30;1.20;;;;;;;;;;10541062;28;20432;-89
2022/05/30 03:48:53;;;;;;;1.70;1.20;;;;;;;;;;10539564;28;20423;-93
2022/05/30 03:53:55;;;;;;;1.30;1.20;;;;;;;;;;10526021;28;20454;-93
2022/05/30 03:58:57;;;;;;;1.55;1.20;;;;;;;;;;10537359;28;20398;-92
2022/05/30 04:04:00;;;;;;;2.47;1.17;;;;;;;;;;10535605;28;20404;-93
2022/05/30 04:09:02;;;;;;;0.83;0.80;;;;;;;;;;10522795;28;20422;-92
2022/05/30 04:14:04;;;;;;;1.20;0.90;;;;;;;;;;10526831;28;20904;-92
2022/05/30 04:19:07;;;;;;;0.90;0.85;;;;;;;;;;10530057;28;20404;-92
2022/05/30 04:24:09;;;;;;;0.80;0.77;;;;;;;;;;10529911;28;20404;-92
2022/05/30 04:29:12;;;;;;;1.30;0.67;;;;;;;;;;10529550;28;20422;-93
2022/05/30 04:34:15;;;;;;;0.70;0.70;;;;;;;;;;10511261;28;20419;-92
2022/05/30 04:39:17;;;;;;;0.75;0.75;;;;;;;;;;10525805;28;21099;-90
2022/05/30 04:44:19;;;;;;;0.90;0.60;;;;;;;;;;10527772;28;20420;-92
2022/05/30 04:49:23;;;;;;;1.58;0.50;;;;;;;;;;10521477;28;20405;-87
2022/05/30 04:54:25;;;;;;;0.90;0.40;;;;;;;;;;10519543;28;20415;-88
2022/05/30 04:59:27;;;;;;;1.63;0.50;;;;;;;;;;10510927;28;20477;-93
2022/05/30 05:04:31;;;;;;;0.60;0.40;;;;;;;;;;10527990;28;20464;-91
2022/05/30 05:09:41;;;;;;;0.50;0.50;;;;;;;;;;10524232;28;20392;-91
2022/05/30 05:14:43;;;;;;;2.10;0.80;;;;;;;;;;10516761;28;20419;-92
2022/05/30 05:19:46;;;;;;;0.55;0.40;;;;;;;;;;10523910;28;20410;-91
2022/05/30 05:24:48;;;;;;;0.70;0.47;;;;;;;;;;10527020;28;20522;-92
2022/05/30 05:29:53;;;;;;;0.40;0.40;;;;;;;;;;10528046;28;21003;-91
2022/05/30 05:34:57;;;;;;;0.83;0.60;;;;;;;;;;10546591;28;20376;-92
2022/05/30 05:39:59;;;;;;;1.67;0.57;;;;;;;;;;10552325;28;21218;-94
2022/05/30 05:45:01;;;;;;;2.10;0.70;;;;;;;;;;10512945;28;20838;-92
2022/05/30 05:50:06;;;;;;;0.70;0.70;;;;;;;;;;10508155;28;20407;-93
2022/05/30 05:55:09;;;;;;;1.40;0.70;;;;;;;;;;10520380;28;20891;-93
2022/05/30 06:00:12;;;;;;;1.13;0.70;;;;;;;;;;10523176;28;20479;-92
2022/05/30 06:05:16;;;;;;;1.10;0.50;;;;;;;;;;10533867;28;20424;-94
2022/05/30 06:10:18;;;;;;;1.10;0.50;;;;;;;;;;10534004;28;20491;-95
2022/05/30 06:15:20;;;;;;;1.80;0.70;;;;;;;;;;10549700;28;20500;-94
2022/05/30 06:20:24;;;;;;;0.77;0.70;;;;;;;;;;10551360;28;20483;-94
2022/05/30 06:25:26;;;;;;;1.75;0.60;;;;;;;;;;10540356;28;20544;-94
2022/05/30 06:30:28;;;;;;;0.53;0.50;;;;;;;;;;10523636;28;20456;-94
2022/05/30 06:35:31;;;;;;;1.70;0.60;;;;;;;;;;10533656;28;20410;-94
2022/05/30 06:40:33;;;;;;;0.70;0.60;;;;;;;;;;10546262;28;20401;-95
2022/05/30 06:45:35;;;;;;;0.73;0.60;;;;;;;;;;10550218;28;20510;-94
2022/05/30 06:50:38;;;;;;;0.98;0.60;;;;;;;;;;10537826;28;20404;-93
2022/05/30 06:55:40;;;;;;;1.52;0.77;;;;;;;;;;10539194;28;20400;-95
2022/05/30 07:00:45;;;;;;;3.28;0.90;;;;;;;;;;10525486;28;20431;-94
2022/05/30 07:05:48;;;;;;;0.97;0.93;;;;;;;;;;10524974;28;20420;-94
2022/05/30 07:10:51;;;;;;;2.03;0.80;;;;;;;;;;10532888;28;20408;-93
2022/05/30 07:15:53;;;;;;;1.50;1.00;;;;;;;;;;10529722;28;20416;-94
2022/05/30 07:21:01;;;;;;;1.23;0.85;;;;;;;;;;10537732;28;20404;-93
2022/05/30 07:26:06;;;;;;;1.83;1.00;;;;;;;;;;10531566;28;20489;-93
2022/05/30 07:31:10;;;;;;;0.73;0.73;;;;;;;;;;10550342;28;20484;-93
2022/05/30 07:36:17;;;;;;;1.10;1.00;;;;;;;;;;10531339;28;20752;-94
2022/05/30 07:41:20;;;;;;;1.30;1.20;;;;;;;;;;10530198;28;20408;-94
2022/05/30 07:46:22;;;;;;;2.80;1.60;;;;;;;;;;10527524;28;20438;-92
2022/05/30 07:51:27;;;;;;;2.33;1.50;;;;;;;;;;10532250;28;20392;-94
2022/05/30 07:56:29;;;;;;;2.92;1.70;;;;;;;;;;10534015;28;20388;-92
2022/05/30 08:01:31;;;;;;;2.43;1.50;;;;;;;;;;10518776;28;20404;-94
2022/05/30 08:06:34;;;;;;;3.60;1.90;;;;;;;;;;10525191;28;20469;-95
2022/05/30 08:11:36;;;;;;;1.95;1.00;;;;;;;;;;10523792;28;20464;-94
2022/05/30 08:16:38;;;;;;;2.88;1.50;;;;;;;;;;10530399;28;20414;-94
2022/05/30 08:21:42;;;;;;;1.20;1.00;;;;;;;;;;10533104;28;20396;-94
2022/05/30 08:26:44;;;;;;;2.03;1.25;;;;;;;;;;10541282;28;20469;-96
2022/05/30 08:31:46;;;;;;;1.10;0.70;;;;;;;;;;10543633;28;20409;-95
2022/05/30 08:36:50;;;;;;;2.75;1.00;;;;;;;;;;10564992;28;20419;-96
2022/05/30 08:41:53;;;;;;;1.20;0.90;;;;;;;;;;10550419;28;20396;-96
2022/05/30 08:47:00;;;;;;;0.98;0.70;;;;;;;;;;10534163;28;20447;-95
2022/05/30 08:52:41;;;;;;;0.90;0.80;;;;;;;;;;10546631;28;20412;-96
2022/05/30 08:57:52;;;;;;;2.00;0.90;;;;;;;;;;10535205;28;20409;-96
2022/05/30 09:02:58;;;;;;;0.77;0.73;;;;;;;;;;10528172;28;20404;-95
2022/05/30 09:08:07;;;;;;;0.93;0.70;;;;;;;;;;10535422;28;20464;-96
2022/05/30 09:13:20;;;;;;;1.35;0.68;;;;;;;;;;10538401;28;20967;-94
2022/05/30 09:18:24;;;;;;;1.00;0.90;;;;;;;;;;10531631;28;20436;-93
2022/05/30 09:23:27;;;;;;;1.40;0.80;;;;;;;;;;10526389;28;20896;-95
2022/05/30 09:28:35;;;;;;;0.73;0.50;;;;;;;;;;10565440;28;20440;-96
2022/05/30 09:33:40;;;;;;;0.68;0.63;;;;;;;;;;10544004;28;20422;-96
2022/05/30 09:38:45;;;;;;;1.43;0.83;;;;;;;;;;10533318;28;20416;-96
2022/05/30 09:43:53;;;;;;;0.80;0.80;;;;;;;;;;10550288;28;20539;-96
2022/05/30 09:49:04;;;;;;;2.83;1.02;;;;;;;;;;10546295;28;20760;-96
2022/05/30 09:54:10;;;;;;;2.83;0.93;;;;;;;;;;10587009;27;20475;-96
2022/05/30 09:59:29;;;;;;;0.80;0.70;;;;;;;;;;10572333;28;20399;-96
2022/05/30 10:04:37;;;;;;;0.70;0.60;;;;;;;;;;10545517;28;20412;-96
2022/05/30 10:09:51;;;;;;;1.50;0.80;;;;;;;;;;10548571;28;20416;-96
2022/05/30 10:14:53;;;;;;;1.33;0.90;;;;;;;;;;10533914;28;20442;-96
2022/05/30 10:19:57;;;;;;;0.97;0.90;;;;;;;;;;10562355;28;20415;-95
2022/05/30 10:30:44;;;;;;;0.70;0.70;;;;;;;;;;10536064;28;20428;-95
2022/05/30 10:35:55;;;;;;;1.30;1.10;;;;;;;;;;10537167;28;20419;-95
2022/05/30 10:41:10;;;;;;;1.80;0.90;;;;;;;;;;10534425;28;20477;-96
2022/05/30 10:46:19;;;;;;;2.20;0.60;;;;;;;;;;10533297;28;20408;-96
2022/05/30 10:51:23;;;;;;;1.65;1.33;;;;;;;;;;10536664;28;20515;-96
2022/05/30 10:56:31;;;;;;;1.38;0.98;;;;;;;;;;10525096;28;20782;-96
2022/05/30 11:01:42;;;;;;;1.50;1.15;;;;;;;;;;10535122;28;20408;-95
2022/05/30 11:06:46;;;;;;;2.27;0.90;;;;;;;;;;10537501;28;20492;-96
2022/05/30 11:11:58;;;;;;;1.67;1.00;;;;;;;;;;10545606;28;20414;-95
2022/05/30 11:17:13;;;;;;;1.75;1.00;;;;;;;;;;10547167;28;20413;-94
2022/05/30 11:22:19;;;;;;;1.08;0.95;;;;;;;;;;10523274;28;20494;-96
2022/05/30 11:27:41;;;;;;;2.67;0.80;;;;;;;;;;10526954;28;20880;-96
2022/05/30 11:33:01;;;;;;;0.90;0.60;;;;;;;;;;10525508;28;20412;-96
2022/05/30 11:38:22;;;;;;;0.50;0.33;;;;;;;;;;10527810;28;20412;-95
2022/05/30 11:43:52;;;;;;;1.00;0.57;;;;;;;;;;10538057;28;20405;-93
2022/05/30 11:48:59;;;;;;;2.00;0.60;;;;;;;;;;10543653;28;20719;-95
2022/05/30 11:54:20;;;;;;;1.15;0.60;;;;;;;;;;10534902;28;20409;-95
2022/05/30 11:59:56;;;;;;;1.90;0.70;;;;;;;;;;10517002;28;20969;-93
2022/05/30 12:05:29;;;;;;;1.60;0.90;;;;;;;;;;10523960;28;20400;-88
2022/05/30 12:10:45;;;;;;;1.48;1.10;;;;;;;;;;10521329;28;20912;-86
2022/05/30 12:16:21;;;;;;;1.35;1.23;;;;;;;;;;10522599;28;20768;-85
2022/05/30 12:27:27;;;;;;;1.77;1.48;;;;;;;;;;10516826;28;20465;-86
2022/05/30 12:32:42;;;;;;;2.35;1.20;;;;;;;;;;10498875;28;20408;-87
2022/05/30 12:37:45;;;;;;;1.80;1.23;;;;;;;;;;10529431;28;20975;-88
2022/05/30 12:43:02;;;;;;;1.58;1.38;;;;;;;;;;10519070;28;20408;-86
2022/05/30 12:48:16;;;;;;;3.10;1.20;;;;;;;;;;10515595;28;20907;-87
2022/05/30 12:53:20;;;;;;;2.10;1.20;;;;;;;;;;10518759;28;21178;-88
2022/05/30 12:58:24;;;;;;;1.65;1.30;;;;;;;;;;10517036;28;20964;-88
2022/05/30 13:03:40;;;;;;;2.42;1.48;;;;;;;;;;10513077;28;20920;-87
2022/05/30 13:08:58;;;;;;;2.33;1.20;;;;;;;;;;10515786;28;20505;-88
2022/05/30 13:14:10;;;;;;;1.50;1.30;;;;;;;;;;10510590;28;20499;-87
2022/05/30 13:19:15;;;;;;;2.67;1.20;;;;;;;;;;10506002;28;20400;-85
2022/05/30 13:24:32;;;;;;;0.93;0.90;;;;;;;;;;10511767;28;20420;-86
2022/05/30 13:29:36;;;;;;;3.70;1.30;;;;;;;;;;10512962;28;20456;-86
2022/05/30 13:34:48;;;;;;;1.33;1.23;;;;;;;;;;10516869;28;20400;-86
2022/05/30 13:39:52;;;;;;;1.40;1.02;;;;;;;;;;10516944;28;20413;-86
2022/05/30 13:44:57;;;;;;;1.88;1.10;;;;;;;;;;10515405;28;20412;-86
2022/05/30 13:50:00;;;;;;;1.48;1.38;;;;;;;;;;10514252;28;21314;-91
2022/05/30 13:55:06;;;;;;;2.05;1.35;;;;;;;;;;10522264;28;20417;-85
2022/05/30 14:00:13;;;;;;;1.63;1.30;;;;;;;;;;10521040;28;20807;-86
2022/05/30 14:05:35;;;;;;;1.93;1.17;;;;;;;;;;10520982;28;21209;-85
2022/05/30 14:10:40;;;;;;;2.33;1.20;;;;;;;;;;10517268;28;20473;-87
2022/05/30 14:15:52;;;;;;;2.67;1.30;;;;;;;;;;10515364;28;20497;-85
2022/05/30 14:20:57;;;;;;;2.63;1.30;;;;;;;;;;10498973;28;20421;-86
2022/05/30 14:25:59;;;;;;;2.43;1.60;;;;;;;;;;10509251;28;20418;-87
2022/05/30 14:31:10;;;;;;;2.17;1.80;;;;;;;;;;10515572;28;20481;-86
2022/05/30 14:36:28;;;;;;;2.80;1.73;;;;;;;;;;10525180;28;20400;-86
2022/05/30 14:41:35;;;;;;;2.53;1.70;;;;;;;;;;10517883;28;20404;-86
2022/05/30 14:46:42;;;;;;;1.70;1.60;;;;;;;;;;10509415;28;20410;-85
2022/05/30 14:51:53;;;;;;;2.33;2.07;;;;;;;;;;10516039;28;20404;-85
2022/05/30 14:56:55;;;;;;;3.15;1.92;;;;;;;;;;10522042;28;20495;-85
2022/05/30 15:01:57;;;;;;;2.90;1.80;;;;;;;;;;10514351;28;20417;-85
2022/05/30 15:07:10;;;;;;;2.85;1.10;;;;;;;;;;10516613;28;20493;-86
2022/05/30 15:12:12;;;;;;;1.70;1.10;;;;;;;;;;10519295;28;22106;-85
2022/05/30 15:17:14;;;;;;;4.77;1.20;;;;;;;;;;10515050;28;20478;-85
2022/05/30 15:22:19;;;;;;;5.72;1.00;;;;;;;;;;10513574;28;20422;-86
2022/05/30 15:27:21;;;;;;;1.65;1.55;;;;;;;;;;10515774;28;20427;-86
2022/05/30 15:32:24;;;;;;;3.07;1.27;;;;;;;;;;10525420;28;20411;-85
2022/05/30 15:37:28;;;;;;;2.53;1.10;;;;;;;;;;10525424;28;20409;-85
2022/05/30 15:42:30;;;;;;;2.00;1.10;;;;;;;;;;10506326;28;20617;-88
2022/05/30 15:47:32;;;;;;;1.87;1.10;;;;;;;;;;10543272;28;20498;-87
2022/05/30 15:58:02;;;;;;;3.37;1.00;;;;;;;;;;10517027;28;20443;-90
2022/05/30 16:03:04;;;;;;;1.50;0.95;;;;;;;;;;10515269;28;20483;-83
2022/05/30 16:08:22;;;;;;;1.93;1.00;;;;;;;;;;10516707;28;20869;-88
2022/05/30 16:13:24;;;;;;;0.95;0.80;;;;;;;;;;10521908;28;21155;-87
2022/05/30 16:18:26;;;;;;;1.20;0.90;;;;;;;;;;10524283;28;20396;-87
2022/05/30 16:23:30;;;;;;;3.30;0.60;;;;;;;;;;10522140;28;20585;-87
2022/05/30 16:28:32;;;;;;;2.08;0.75;;;;;;;;;;10512685;28;20422;-83
2022/05/30 16:33:34;;;;;;;1.00;0.73;;;;;;;;;;10499158;28;20945;-83
2022/05/30 16:38:38;;;;;;;1.80;0.75;;;;;;;;;;10509237;28;20406;-86
2022/05/30 16:43:41;;;;;;;1.25;1.15;;;;;;;;;;10501917;28;20487;-86
2022/05/30 16:48:44;;;;;;;2.30;0.97;;;;;;;;;;10491923;28;20441;-85
2022/05/30 16:53:48;;;;;;;1.50;1.40;;;;;;;;;;10503696;28;20427;-86
2022/05/30 16:58:51;;;;;;;3.33;1.37;;;;;;;;;;10509796;28;20419;-86
2022/05/30 17:03:54;;;;;;;2.55;1.10;;;;;;;;;;10512004;28;20420;-87
2022/05/30 17:08:58;;;;;;;2.22;1.10;;;;;;;;;;10507384;28;20512;-85
2022/05/30 17:14:00;;;;;;;2.87;1.00;;;;;;;;;;10495634;28;20434;-86
2022/05/30 17:19:05;;;;;;;1.90;1.20;;;;;;;;;;10504132;28;20422;-87
2022/05/30 17:24:11;;;;;;;5.80;1.30;;;;;;;;;;10505558;28;20420;-87
2022/05/30 17:29:20;;;;;;;3.50;0.90;;;;;;;;;;10511250;28;20428;-86
2022/05/30 17:34:23;;;;;;;1.87;1.23;;;;;;;;;;10510992;28;21573;-85
2022/05/30 17:39:29;;;;;;;2.85;1.13;;;;;;;;;;10506150;28;20422;-86
2022/05/30 17:44:31;;;;;;;1.50;0.95;;;;;;;;;;10499459;28;20416;-86
2022/05/30 17:49:42;;;;;;;2.93;1.50;;;;;;;;;;10504956;28;20875;-87
2022/05/30 17:54:47;;;;;;;2.60;1.50;;;;;;;;;;10508646;28;20892;-92
2022/05/30 17:59:50;;;;;;;2.60;1.60;;;;;;;;;;10523737;28;20435;-92
2022/05/30 18:04:52;;;;;;;1.88;1.67;;;;;;;;;;10528919;28;20796;-92
2022/05/30 18:10:09;;;;;;;3.17;1.90;;;;;;;;;;10533717;28;20942;-92
2022/05/30 18:15:23;;;;;;;3.92;2.25;;;;;;;;;;10533468;28;20495;-90
2022/05/30 18:20:26;;;;;;;4.30;3.13;;;;;;;;;;10525740;28;20408;-91
2022/05/30 18:25:32;;;;;;;4.18;2.08;;;;;;;;;;10545551;28;20424;-91
2022/05/30 18:30:39;;;;;;;2.60;1.73;;;;;;;;;;10535008;28;20503;-90
2022/05/30 18:35:49;;;;;;;2.90;2.03;;;;;;;;;;10527427;28;20915;-91
2022/05/30 18:40:58;;;;;;;3.58;1.77;;;;;;;;;;10519938;28;20418;-90
2022/05/30 18:46:12;;;;;;;2.17;1.73;;;;;;;;;;10522819;28;20902;-89
2022/05/30 18:51:16;;;;;;;4.00;1.80;;;;;;;;;;10520234;28;20506;-90
2022/05/30 18:56:37;;;;;;;2.97;1.80;;;;;;;;;;10520711;28;20888;-90
2022/05/30 19:01:40;;;;;;;2.72;1.83;;;;;;;;;;10512121;28;20406;-90
2022/05/30 19:06:43;;;;;;;3.10;1.87;;;;;;;;;;10515341;28;20830;-90
2022/05/30 19:11:53;;;;;;;3.00;1.83;;;;;;;;;;10531144;28;20759;-90
2022/05/30 19:22:16;;;;;;;3.33;2.03;;;;;;;;;;10513991;28;20390;-90
2022/05/30 19:27:20;;;;;;;2.47;2.28;;;;;;;;;;10519150;28;20416;-90
2022/05/30 19:32:22;;;;;;;3.17;2.40;;;;;;;;;;10519351;28;20561;-90
2022/05/30 19:37:25;;;;;;;3.13;2.20;;;;;;;;;;10525200;28;20412;-89
2022/05/30 19:42:34;;;;;;;6.33;2.37;;;;;;;;;;10517451;28;21025;-90
2022/05/30 19:47:36;;;;;;;4.00;2.50;;;;;;;;;;10515925;28;20489;-90
2022/05/30 19:52:40;;;;;;;2.80;2.60;;;;;;;;;;10510674;28;20416;-89
2022/05/30 19:57:46;;;;;;;5.10;2.78;;;;;;;;;;10509910;28;20402;-89
2022/05/30 20:02:49;;;;;;;3.03;2.80;;;;;;;;;;10521906;28;20424;-91
2022/05/30 20:07:52;;;;;;;4.83;3.80;;;;;;;;;;10516429;28;20412;-90
2022/05/30 20:12:55;;;;;;;5.20;3.92;;;;;;;;;;10552720;28;20402;-89
2022/05/30 20:17:57;;;;;;;5.00;4.50;;;;;;;;;;10516324;28;21521;-90
2022/05/30 20:23:00;;;;;;;6.00;4.40;;;;;;;;;;10514690;28;20400;-90
2022/05/30 20:28:05;;;;;;;8.13;5.55;;;;;;;;;;10517357;28;20497;-90
2022/05/30 20:33:08;;;;;;;8.18;6.00;;;;;;;;;;10511889;28;20418;-90
2022/05/30 20:38:12;;;;;;;8.60;6.50;;;;;;;;;;10518347;28;20426;-89
2022/05/30 20:43:16;;;;;;;8.30;6.47;;;;;;;;;;10517320;28;20938;-90
2022/05/30 20:48:21;;;;;;;10.40;7.13;;;;;;;;;;10521040;28;20416;-88
2022/05/30 20:53:24;;;;;;;8.80;7.17;;;;;;;;;;10510363;28;20845;-89
2022/05/30 20:58:28;;;;;;;7.93;7.13;;;;;;;;;;10508385;28;20405;-91
2022/05/30 21:03:30;;;;;;;8.57;6.75;;;;;;;;;;10525782;28;20887;-89
2022/05/30 21:08:33;;;;;;;9.43;6.30;;;;;;;;;;10515850;28;20433;-87
2022/05/30 21:13:37;;;;;;;8.40;6.90;;;;;;;;;;10525234;28;20434;-89
2022/05/30 21:18:41;;;;;;;7.93;6.90;;;;;;;;;;10519422;28;20410;-88
2022/05/30 21:23:43;;;;;;;7.30;6.60;;;;;;;;;;10513897;28;20400;-88
2022/05/30 21:28:48;;;;;;;8.55;7.10;;;;;;;;;;10526773;28;20783;-92
2022/05/30 21:33:54;;;;;;;8.13;7.32;;;;;;;;;;10503636;28;20454;-86
2022/05/30 21:38:55;;;;;;;9.68;7.68;;;;;;;;;;10506769;28;20387;-84
2022/05/30 21:43:59;;;;;;;9.67;8.30;;;;;;;;;;10520781;28;20434;-84
2022/05/30 21:49:00;;;;;;;9.27;8.35;;;;;;;;;;10522568;28;21076;-85
2022/05/30 21:54:02;;;;;;;10.20;8.23;;;;;;;;;;10525091;28;20399;-84
2022/05/30 21:59:08;;;;;;;13.20;8.93;;;;;;;;;;10525044;28;20402;-84
2022/05/30 22:04:11;;;;;;;15.77;11.10;;;;;;;;;;10528632;28;20479;-84
2022/05/30 22:09:13;;;;;;;16.27;10.60;;;;;;;;;;10522841;28;20686;-85
2022/05/30 22:14:16;;;;;;;17.60;11.00;;;;;;;;;;10527442;28;20503;-85
2022/05/30 22:19:18;;;;;;;12.98;9.15;;;;;;;;;;10527596;28;20871;-86
2022/05/30 22:24:37;;;;;;;10.63;8.27;;;;;;;;;;10528795;28;20410;-86
2022/05/30 22:29:41;;;;;;;10.90;7.47;;;;;;;;;;10518988;28;20510;-84
2022/05/30 22:34:43;;;;;;;8.60;7.47;;;;;;;;;;10527086;28;20407;-84
2022/05/30 22:39:45;;;;;;;9.63;7.10;;;;;;;;;;10521712;28;20442;-84
2022/05/30 22:44:48;;;;;;;7.73;6.70;;;;;;;;;;10524380;28;20400;-84
2022/05/30 22:49:50;;;;;;;9.07;6.00;;;;;;;;;;10525131;28;20503;-84
2022/05/30 22:54:52;;;;;;;7.23;6.50;;;;;;;;;;10521471;28;20399;-85
2022/05/30 22:59:55;;;;;;;7.65;6.20;;;;;;;;;;10522003;28;20396;-85
2022/05/30 23:04:57;;;;;;;8.50;6.50;;;;;;;;;;10523264;28;20432;-84
2022/05/30 23:09:59;;;;;;;13.55;7.60;;;;;;;;;;10526052;28;20420;-84
2022/05/30 23:15:04;;;;;;;8.88;7.22;;;;;;;;;;10525948;28;20427;-84
2022/05/30 23:20:10;;;;;;;9.73;7.30;;;;;;;;;;10521524;28;20500;-85
2022/05/30 23:25:14;;;;;;;10.65;7.45;;;;;;;;;;10526192;28;20404;-85
2022/05/30 23:30:17;;;;;;;7.97;6.67;;;;;;;;;;10524758;28;20430;-86
2022/05/30 23:35:19;;;;;;;9.70;6.80;;;;;;;;;;10525265;28;20480;-85
2022/05/30 23:40:21;;;;;;;8.30;7.20;;;;;;;;;;10524523;28;20748;-85
2022/05/30 23:45:25;;;;;;;9.85;7.22;;;;;;;;;;10524034;28;20827;-85
2022/05/30 23:50:28;;;;;;;8.73;7.25;;;;;;;;;;10522011;28;20423;-83
2022/05/30 23:55:31;;;;;;;8.52;7.20;;;;;;;;;;10521164;28;20408;-86
